createdAt,value
2018-04-17T00:00:10.111Z,0
2018-04-17T00:01:11.682Z,0
2018-04-17T00:02:13.248Z,0
2018-04-17T00:03:14.808Z,0
2018-04-17T00:04:16.362Z,0
2018-04-17T00:05:17.928Z,0
2018-04-17T00:06:19.486Z,0
2018-04-17T00:07:21.098Z,0
2018-04-17T00:08:22.675Z,0
2018-04-17T00:09:24.235Z,0
2018-04-17T00:10:25.819Z,0
2018-04-17T00:11:27.377Z,0
2018-04-17T00:12:28.948Z,0
2018-04-17T00:13:30.562Z,0
2018-04-17T00:14:32.129Z,0
2018-04-17T00:15:33.707Z,0
2018-04-17T00:16:35.292Z,0
2018-04-17T00:17:36.857Z,0
2018-04-17T00:18:38.430Z,0
2018-04-17T00:19:39.978Z,0
2018-04-17T00:20:41.553Z,0
2018-04-17T00:21:43.092Z,0
2018-04-17T00:22:44.657Z,0
2018-04-17T00:23:46.224Z,0
2018-04-17T00:24:47.772Z,0
2018-04-17T00:25:49.323Z,0
2018-04-17T00:26:50.979Z,0
2018-04-17T00:27:52.561Z,0
2018-04-17T00:28:54.127Z,0
2018-04-17T00:29:55.709Z,0
2018-04-17T00:30:57.279Z,0
2018-04-17T00:31:58.888Z,0
2018-04-17T00:33:00.529Z,0
2018-04-17T00:34:02.121Z,0
2018-04-17T00:35:03.701Z,0
2018-04-17T00:36:05.250Z,0
2018-04-17T00:37:06.822Z,0
2018-04-17T00:38:08.397Z,0
2018-04-17T00:39:09.972Z,0
2018-04-17T00:40:11.572Z,0
2018-04-17T00:41:13.139Z,0
2018-04-17T00:42:14.731Z,0
2018-04-17T00:43:16.300Z,0
2018-04-17T00:44:17.856Z,0
2018-04-17T00:45:19.425Z,0
2018-04-17T00:46:21.097Z,0
2018-04-17T00:47:22.683Z,0
2018-04-17T00:48:24.232Z,0
2018-04-17T00:49:25.807Z,0
2018-04-17T00:50:27.375Z,0
2018-04-17T00:51:28.972Z,0
2018-04-17T00:52:30.538Z,0
2018-04-17T00:53:32.102Z,0
2018-04-17T00:54:33.802Z,0
2018-04-17T00:55:35.370Z,0
2018-04-17T00:56:36.941Z,0
2018-04-17T00:57:38.494Z,0
2018-04-17T00:58:40.064Z,0
2018-04-17T00:59:41.667Z,0
2018-04-17T01:00:43.261Z,0
2018-04-17T01:01:44.835Z,0
2018-04-17T01:02:46.434Z,0
2018-04-17T01:03:47.989Z,0
2018-04-17T01:04:49.560Z,0
2018-04-17T01:05:51.208Z,0
2018-04-17T01:06:52.838Z,0
2018-04-17T01:07:54.406Z,0
2018-04-17T01:08:55.979Z,0
2018-04-17T01:09:57.534Z,0
2018-04-17T01:10:59.121Z,0
2018-04-17T01:12:00.676Z,0
2018-04-17T01:13:02.236Z,0
2018-04-17T01:14:03.797Z,0
2018-04-17T01:15:05.366Z,0
2018-04-17T01:16:06.920Z,0
2018-04-17T01:17:08.484Z,0
2018-04-17T01:18:10.040Z,0
2018-04-17T01:19:11.702Z,0
2018-04-17T01:20:13.261Z,0
2018-04-17T01:21:14.813Z,0
2018-04-17T01:22:16.372Z,0
2018-04-17T01:23:17.925Z,0
2018-04-17T01:24:19.500Z,0
2018-04-17T01:25:21.094Z,0
2018-04-17T01:26:22.647Z,0
2018-04-17T01:27:24.195Z,0
2018-04-17T01:28:25.747Z,0
2018-04-17T01:29:27.305Z,0
2018-04-17T01:30:28.862Z,0
2018-04-17T01:31:30.425Z,0
2018-04-17T01:32:32.013Z,0
2018-04-17T01:33:33.560Z,0
2018-04-17T01:34:35.113Z,0
2018-04-17T01:35:36.670Z,0
2018-04-17T01:36:38.269Z,0
2018-04-17T01:37:39.810Z,0
2018-04-17T01:38:41.360Z,0
2018-04-17T01:39:42.905Z,0
2018-04-17T01:40:44.455Z,0
2018-04-17T01:41:46.033Z,0
2018-04-17T01:42:47.587Z,0
2018-04-17T01:43:49.152Z,0
2018-04-17T01:44:50.707Z,0
2018-04-17T01:45:52.264Z,0
2018-04-17T01:46:53.821Z,0
2018-04-17T01:47:55.410Z,0
2018-04-17T01:48:57.004Z,0
2018-04-17T01:49:58.554Z,0
2018-04-17T01:51:00.111Z,0
2018-04-17T01:52:01.675Z,0
2018-04-17T01:53:03.243Z,0
2018-04-17T01:54:04.799Z,0
2018-04-17T01:55:06.351Z,0
2018-04-17T01:56:07.950Z,0
2018-04-17T01:57:09.464Z,0
2018-04-17T01:58:11.022Z,0
2018-04-17T01:59:12.572Z,0
2018-04-17T02:00:14.135Z,0
2018-04-17T02:01:15.713Z,0
2018-04-17T02:02:17.267Z,0
2018-04-17T02:03:18.839Z,0
2018-04-17T02:04:20.382Z,0
2018-04-17T02:05:21.941Z,0
2018-04-17T02:06:23.535Z,0
2018-04-17T02:07:25.094Z,0
2018-04-17T02:08:26.794Z,0
2018-04-17T02:09:28.371Z,0
2018-04-17T02:10:29.939Z,0
2018-04-17T02:11:31.539Z,0
2018-04-17T02:12:33.096Z,0
2018-04-17T02:13:34.679Z,0
2018-04-17T02:14:36.239Z,0
2018-04-17T02:15:37.828Z,0
2018-04-17T02:16:39.381Z,0
2018-04-17T02:17:40.941Z,0
2018-04-17T02:18:42.956Z,0
2018-04-17T02:19:44.933Z,0
2018-04-17T02:20:46.482Z,0
2018-04-17T02:21:48.040Z,0
2018-04-17T02:22:49.637Z,0
2018-04-17T02:23:51.181Z,0
2018-04-17T02:24:52.733Z,0
2018-04-17T02:25:54.284Z,0
2018-04-17T02:26:56.026Z,0
2018-04-17T02:27:57.580Z,0
2018-04-17T02:28:59.147Z,0
2018-04-17T02:30:00.709Z,0
2018-04-17T02:31:02.277Z,0
2018-04-17T02:32:04.687Z,0
2018-04-17T02:33:06.243Z,0
2018-04-17T02:34:07.808Z,0
2018-04-17T02:35:09.357Z,0
2018-04-17T02:36:10.912Z,0
2018-04-17T02:37:12.539Z,0
2018-04-17T02:38:14.100Z,0
2018-04-17T02:39:15.980Z,0
2018-04-17T02:40:17.544Z,0
2018-04-17T02:41:19.577Z,0
2018-04-17T02:42:21.131Z,0
2018-04-17T02:43:22.697Z,0
2018-04-17T02:44:24.725Z,0
2018-04-17T02:45:26.284Z,0
2018-04-17T02:46:27.863Z,0
2018-04-17T02:47:29.445Z,0
2018-04-17T02:48:31.293Z,0
2018-04-17T02:49:32.856Z,0
2018-04-17T02:50:34.430Z,0
2018-04-17T02:51:36.100Z,0
2018-04-17T02:52:37.648Z,0
2018-04-17T02:53:39.217Z,0
2018-04-17T02:54:40.926Z,0
2018-04-17T02:55:42.485Z,0
2018-04-17T02:56:44.055Z,0
2018-04-17T02:57:45.619Z,0
2018-04-17T02:58:47.175Z,0
2018-04-17T02:59:48.781Z,0
2018-04-17T03:00:50.345Z,0
2018-04-17T03:01:51.892Z,0
2018-04-17T03:02:53.457Z,0
2018-04-17T03:03:55.016Z,0
2018-04-17T03:04:56.590Z,0
2018-04-17T03:05:58.171Z,0
2018-04-17T03:06:59.724Z,0
2018-04-17T03:08:01.308Z,0
2018-04-17T03:09:02.864Z,0
2018-04-17T03:10:04.419Z,0
2018-04-17T03:11:05.978Z,0
2018-04-17T03:12:07.545Z,0
2018-04-17T03:13:09.108Z,0
2018-04-17T03:14:10.663Z,0
2018-04-17T03:15:12.224Z,0
2018-04-17T03:16:13.781Z,0
2018-04-17T03:17:15.326Z,0
2018-04-17T03:18:16.888Z,0
2018-04-17T03:19:18.489Z,0
2018-04-17T03:20:20.063Z,0
2018-04-17T03:21:21.611Z,0
2018-04-17T03:22:23.161Z,0
2018-04-17T03:23:24.724Z,0
2018-04-17T03:24:26.283Z,0
2018-04-17T03:25:27.836Z,0
2018-04-17T03:26:29.407Z,0
2018-04-17T03:27:30.958Z,0
2018-04-17T03:28:32.507Z,0
2018-04-17T03:29:34.059Z,0
2018-04-17T03:30:35.627Z,0
2018-04-17T03:31:37.182Z,0
2018-04-17T03:32:38.763Z,0
2018-04-17T03:33:40.323Z,0
2018-04-17T03:34:41.893Z,0
2018-04-17T03:35:43.450Z,0
2018-04-17T03:36:45.045Z,0
2018-04-17T03:37:46.606Z,0
2018-04-17T03:38:48.157Z,0
2018-04-17T03:39:49.712Z,0
2018-04-17T03:40:51.264Z,0
2018-04-17T03:41:52.829Z,0
2018-04-17T03:42:54.386Z,0
2018-04-17T03:43:55.939Z,0
2018-04-17T03:44:57.509Z,0
2018-04-17T03:45:59.077Z,0
2018-04-17T03:47:00.638Z,0
2018-04-17T03:48:02.212Z,0
2018-04-17T03:49:03.772Z,0
2018-04-17T03:50:05.346Z,0
2018-04-17T03:51:06.914Z,0
2018-04-17T03:52:08.478Z,0
2018-04-17T03:53:10.049Z,0
2018-04-17T03:54:11.625Z,0
2018-04-17T03:55:13.205Z,0
2018-04-17T03:56:14.771Z,0
2018-04-17T03:57:16.369Z,0
2018-04-17T03:58:17.959Z,0
2018-04-17T03:59:19.532Z,0
2018-04-17T04:00:21.091Z,0
2018-04-17T04:01:22.655Z,0
2018-04-17T04:02:24.226Z,0
2018-04-17T04:03:25.779Z,0
2018-04-17T04:04:27.334Z,0
2018-04-17T04:05:28.893Z,0
2018-04-17T04:06:30.465Z,0
2018-04-17T04:07:32.039Z,0
2018-04-17T04:08:33.603Z,0
2018-04-17T04:09:35.162Z,0
2018-04-17T04:10:36.740Z,0
2018-04-17T04:11:38.306Z,0
2018-04-17T04:12:39.884Z,0
2018-04-17T04:13:41.431Z,0
2018-04-17T04:14:43.004Z,0
2018-04-17T04:15:44.575Z,0
2018-04-17T04:16:46.128Z,0
2018-04-17T04:17:47.685Z,0
2018-04-17T04:18:49.242Z,0
2018-04-17T04:19:50.814Z,0
2018-04-17T04:20:52.374Z,0
2018-04-17T04:21:53.939Z,0
2018-04-17T04:22:55.508Z,0
2018-04-17T04:23:57.069Z,0
2018-04-17T04:24:58.634Z,0
2018-04-17T04:26:00.229Z,0
2018-04-17T04:27:01.787Z,0
2018-04-17T04:28:03.345Z,0
2018-04-17T04:29:04.895Z,0
2018-04-17T04:30:06.472Z,0
2018-04-17T04:31:08.030Z,0
2018-04-17T04:32:09.600Z,0
2018-04-17T04:33:11.155Z,0
2018-04-17T04:34:12.711Z,0
2018-04-17T04:35:14.290Z,0
2018-04-17T04:36:15.842Z,0
2018-04-17T04:37:17.427Z,0
2018-04-17T04:38:18.988Z,0
2018-04-17T04:39:20.556Z,0
2018-04-17T04:40:22.106Z,0
2018-04-17T04:41:23.672Z,0
2018-04-17T04:42:25.237Z,0
2018-04-17T04:43:26.789Z,0
2018-04-17T04:44:28.377Z,0
2018-04-17T04:45:29.954Z,0
2018-04-17T04:46:31.522Z,0
2018-04-17T04:47:33.093Z,0
2018-04-17T04:48:34.671Z,0
2018-04-17T04:49:36.259Z,0
2018-04-17T04:50:37.837Z,0
2018-04-17T04:51:39.427Z,0
2018-04-17T04:52:41.002Z,0
2018-04-17T04:53:42.570Z,0
2018-04-17T04:54:44.156Z,0
2018-04-17T04:55:45.729Z,0
2018-04-17T04:56:47.310Z,0
2018-04-17T04:57:48.920Z,0
2018-04-17T04:58:50.518Z,0
2018-04-17T04:59:52.082Z,0
2018-04-17T05:00:53.651Z,0
2018-04-17T05:01:55.265Z,0
2018-04-17T05:02:56.843Z,0
2018-04-17T05:03:58.411Z,0
2018-04-17T05:04:59.974Z,0
2018-04-17T05:06:01.550Z,0
2018-04-17T05:07:03.114Z,0
2018-04-17T05:08:04.695Z,0
2018-04-17T05:09:06.273Z,0
2018-04-17T05:10:07.862Z,0
2018-04-17T05:11:09.443Z,0
2018-04-17T05:12:11.016Z,0
2018-04-17T05:13:12.709Z,0
2018-04-17T05:14:14.279Z,0
2018-04-17T05:15:15.848Z,0
2018-04-17T05:16:17.425Z,0
2018-04-17T05:17:19.003Z,0
2018-04-17T05:18:20.597Z,0
2018-04-17T05:19:22.164Z,0
2018-04-17T05:20:23.742Z,0
2018-04-17T05:21:25.314Z,0
2018-04-17T05:22:26.893Z,0
2018-04-17T05:23:28.447Z,0
2018-04-17T05:24:30.026Z,0
2018-04-17T05:25:31.598Z,0
2018-04-17T05:26:33.228Z,0
2018-04-17T05:27:34.795Z,0
2018-04-17T05:28:36.369Z,0
2018-04-17T05:29:37.975Z,4
2018-04-17T05:30:39.539Z,0
2018-04-17T05:31:41.127Z,4
2018-04-17T05:32:42.699Z,4
2018-04-17T05:33:44.294Z,4
2018-04-17T05:34:45.878Z,4
2018-04-17T05:35:47.491Z,4
2018-04-17T05:36:49.056Z,8
2018-04-17T05:37:50.629Z,12
2018-04-17T05:38:52.209Z,12
2018-04-17T05:39:53.825Z,16
2018-04-17T05:40:55.452Z,20
2018-04-17T05:41:57.007Z,24
2018-04-17T05:42:58.571Z,28
2018-04-17T05:44:00.177Z,36
2018-04-17T05:45:01.775Z,40
2018-04-17T05:46:03.384Z,48
2018-04-17T05:47:04.954Z,56
2018-04-17T05:48:06.529Z,68
2018-04-17T05:49:08.147Z,72
2018-04-17T05:50:09.752Z,84
2018-04-17T05:51:11.286Z,100
2018-04-17T05:52:12.880Z,112
2018-04-17T05:53:14.467Z,124
2018-04-17T05:54:16.027Z,140
2018-04-17T05:55:17.604Z,152
2018-04-17T05:56:19.201Z,172
2018-04-17T05:57:20.824Z,192
2018-04-17T05:58:22.410Z,212
2018-04-17T05:59:23.995Z,232
2018-04-17T06:00:25.581Z,252
2018-04-17T06:01:27.174Z,276
2018-04-17T06:02:28.748Z,300
2018-04-17T06:03:30.319Z,328
2018-04-17T06:04:31.900Z,364
2018-04-17T06:05:33.465Z,400
2018-04-17T06:06:36.210Z,420
2018-04-17T06:07:37.864Z,452
2018-04-17T06:08:39.480Z,488
2018-04-17T06:09:41.102Z,520
2018-04-17T06:10:42.961Z,548
2018-04-17T06:11:44.559Z,580
2018-04-17T06:12:46.191Z,616
2018-04-17T06:13:47.827Z,648
2018-04-17T06:14:49.442Z,692
2018-04-17T06:15:51.121Z,736
2018-04-17T06:16:52.801Z,776
2018-04-17T06:17:54.388Z,820
2018-04-17T06:18:55.988Z,860
2018-04-17T06:19:57.637Z,900
2018-04-17T06:20:59.329Z,916
2018-04-17T06:22:01.062Z,940
2018-04-17T06:23:05.835Z,976
2018-04-17T06:24:07.440Z,1004
2018-04-17T06:25:09.050Z,1036
2018-04-17T06:26:10.692Z,1068
2018-04-17T06:27:12.322Z,1088
2018-04-17T06:28:14.000Z,1120
2018-04-17T06:29:15.626Z,1156
2018-04-17T06:30:17.249Z,1188
2018-04-17T06:31:18.875Z,1228
2018-04-17T06:32:20.546Z,1272
2018-04-17T06:33:22.189Z,1316
2018-04-17T06:34:23.915Z,1356
2018-04-17T06:35:25.618Z,1388
2018-04-17T06:36:27.280Z,1424
2018-04-17T06:37:28.926Z,1476
2018-04-17T06:38:30.577Z,1524
2018-04-17T06:39:32.227Z,1560
2018-04-17T06:40:33.898Z,1640
2018-04-17T06:41:35.607Z,1724
2018-04-17T06:42:37.294Z,1808
2018-04-17T06:43:40.485Z,1896
2018-04-17T06:44:42.148Z,2016
2018-04-17T06:45:43.758Z,2088
2018-04-17T06:46:45.376Z,2148
2018-04-17T06:47:47.008Z,2256
2018-04-17T06:48:48.643Z,2272
2018-04-17T06:49:50.593Z,2300
2018-04-17T06:50:52.361Z,2360
2018-04-17T06:51:54.054Z,2388
2018-04-17T06:52:55.725Z,2480
2018-04-17T06:53:57.686Z,2548
2018-04-17T06:54:59.556Z,2628
2018-04-17T06:56:01.411Z,2708
2018-04-17T06:57:03.036Z,2776
2018-04-17T06:58:04.820Z,2820
2018-04-17T06:59:06.528Z,2844
2018-04-17T07:00:08.157Z,2952
2018-04-17T07:01:09.796Z,3072
2018-04-17T07:02:11.442Z,3100
2018-04-17T07:03:13.024Z,3064
2018-04-17T07:04:14.703Z,3128
2018-04-17T07:05:16.399Z,3108
2018-04-17T07:06:18.071Z,3100
2018-04-17T07:07:20.023Z,3108
2018-04-17T07:08:21.890Z,3020
2018-04-17T07:09:23.677Z,2852
2018-04-17T07:10:25.424Z,2768
2018-04-17T07:11:27.161Z,2696
2018-04-17T07:12:28.870Z,2616
2018-04-17T07:13:30.674Z,2600
2018-04-17T07:14:32.446Z,2560
2018-04-17T07:15:34.241Z,2232
2018-04-17T07:16:36.070Z,2532
2018-04-17T07:17:37.898Z,2524
2018-04-17T07:18:39.741Z,2484
2018-04-17T07:19:41.580Z,2516
2018-04-17T07:20:43.648Z,2548
2018-04-17T07:21:45.418Z,2568
2018-04-17T07:22:47.678Z,2592
2018-04-17T07:23:49.648Z,2640
2018-04-17T07:24:52.188Z,2692
2018-04-17T07:25:54.011Z,2708
2018-04-17T07:26:55.837Z,2744
2018-04-17T07:27:57.702Z,2776
2018-04-17T07:28:59.568Z,2780
2018-04-17T07:30:01.474Z,2772
2018-04-17T07:31:03.236Z,2756
2018-04-17T07:32:05.105Z,2732
2018-04-17T07:33:06.915Z,2716
2018-04-17T07:34:08.669Z,2720
2018-04-17T07:35:10.537Z,2652
2018-04-17T07:36:12.377Z,2700
2018-04-17T07:37:14.121Z,2752
2018-04-17T07:38:15.831Z,2768
2018-04-17T07:39:17.590Z,2780
2018-04-17T07:40:19.547Z,2800
2018-04-17T07:41:21.332Z,2812
2018-04-17T07:42:23.105Z,2832
2018-04-17T07:43:24.950Z,2848
2018-04-17T07:44:26.797Z,2864
2018-04-17T07:45:28.438Z,2876
2018-04-17T07:46:30.294Z,2892
2018-04-17T07:47:32.247Z,2904
2018-04-17T07:48:33.883Z,2916
2018-04-17T07:49:35.596Z,2928
2018-04-17T07:50:37.502Z,2940
2018-04-17T07:51:39.441Z,2956
2018-04-17T07:52:41.499Z,2964
2018-04-17T07:53:43.494Z,2976
2018-04-17T07:54:45.722Z,2984
2018-04-17T07:55:47.788Z,3000
2018-04-17T07:56:49.960Z,3012
2018-04-17T07:57:51.582Z,3016
2018-04-17T07:58:53.255Z,3028
2018-04-17T07:59:54.869Z,3044
2018-04-17T08:00:56.503Z,3052
2018-04-17T08:01:58.193Z,3064
2018-04-17T08:03:00.167Z,3072
2018-04-17T08:04:01.862Z,3080
2018-04-17T08:05:03.732Z,3084
2018-04-17T08:06:05.580Z,3096
2018-04-17T08:07:07.272Z,3116
2018-04-17T08:08:08.925Z,3124
2018-04-17T08:09:10.536Z,3132
2018-04-17T08:10:12.174Z,3148
2018-04-17T08:11:13.845Z,3148
2018-04-17T08:12:15.533Z,3164
2018-04-17T08:13:17.193Z,3180
2018-04-17T08:14:18.808Z,3196
2018-04-17T08:15:20.421Z,3204
2018-04-17T08:16:22.018Z,3216
2018-04-17T08:17:23.625Z,3228
2018-04-17T08:18:25.253Z,3240
2018-04-17T08:19:26.859Z,3248
2018-04-17T08:20:28.477Z,3260
2018-04-17T08:21:30.110Z,3268
2018-04-17T08:22:31.724Z,3276
2018-04-17T08:23:33.436Z,3280
2018-04-17T08:24:35.103Z,3288
2018-04-17T08:25:36.729Z,3300
2018-04-17T08:26:38.442Z,3304
2018-04-17T08:27:40.121Z,3312
2018-04-17T08:28:41.758Z,3316
2018-04-17T08:29:43.406Z,3332
2018-04-17T08:30:44.994Z,3336
2018-04-17T08:31:46.590Z,3344
2018-04-17T08:32:48.177Z,3352
2018-04-17T08:33:49.785Z,3352
2018-04-17T08:34:51.390Z,3356
2018-04-17T08:35:53.101Z,3368
2018-04-17T08:36:54.774Z,3376
2018-04-17T08:37:56.339Z,3380
2018-04-17T08:38:57.937Z,3380
2018-04-17T08:39:59.540Z,3384
2018-04-17T08:41:01.218Z,3392
2018-04-17T08:42:02.832Z,3392
2018-04-17T08:43:04.435Z,3396
2018-04-17T08:44:06.031Z,3400
2018-04-17T08:45:07.636Z,3416
2018-04-17T08:46:09.251Z,3424
2018-04-17T08:47:10.917Z,3424
2018-04-17T08:48:12.592Z,3428
2018-04-17T08:49:14.243Z,3432
2018-04-17T08:50:15.876Z,3444
2018-04-17T08:51:17.488Z,3452
2018-04-17T08:52:19.099Z,3476
2018-04-17T08:53:21.689Z,3480
2018-04-17T08:54:24.648Z,3488
2018-04-17T08:55:26.313Z,3496
2018-04-17T08:56:27.998Z,3508
2018-04-17T08:57:29.719Z,3516
2018-04-17T08:58:31.335Z,3524
2018-04-17T08:59:32.954Z,3540
2018-04-17T09:00:34.576Z,3552
2018-04-17T09:01:36.623Z,3560
2018-04-17T09:02:38.730Z,3568
2018-04-17T09:03:40.423Z,3584
2018-04-17T09:04:42.508Z,3596
2018-04-17T09:05:44.386Z,3620
2018-04-17T09:06:45.982Z,3640
2018-04-17T09:07:47.595Z,3648
2018-04-17T09:08:49.192Z,3664
2018-04-17T09:09:50.797Z,3668
2018-04-17T09:10:52.438Z,3684
2018-04-17T09:11:54.106Z,3696
2018-04-17T09:12:55.640Z,3700
2018-04-17T09:13:57.253Z,3712
2018-04-17T09:14:58.848Z,3712
2018-04-17T09:16:00.439Z,3732
2018-04-17T09:17:02.037Z,3756
2018-04-17T09:18:03.652Z,3764
2018-04-17T09:19:05.315Z,3780
2018-04-17T09:20:06.901Z,3792
2018-04-17T09:21:08.504Z,3808
2018-04-17T09:22:10.107Z,3828
2018-04-17T09:23:11.703Z,3848
2018-04-17T09:24:13.300Z,3868
2018-04-17T09:25:14.890Z,3892
2018-04-17T09:26:16.488Z,3912
2018-04-17T09:27:18.167Z,3932
2018-04-17T09:28:19.753Z,3912
2018-04-17T09:29:21.387Z,3936
2018-04-17T09:30:22.994Z,3948
2018-04-17T09:31:24.595Z,3976
2018-04-17T09:32:26.196Z,3984
2018-04-17T09:33:27.794Z,3992
2018-04-17T09:34:29.505Z,4000
2018-04-17T09:35:31.072Z,4024
2018-04-17T09:36:32.696Z,4036
2018-04-17T09:37:34.307Z,4048
2018-04-17T09:38:35.936Z,4060
2018-04-17T09:39:37.546Z,4088
2018-04-17T09:40:39.168Z,4104
2018-04-17T09:41:40.744Z,4116
2018-04-17T09:42:42.342Z,4108
2018-04-17T09:43:43.953Z,4104
2018-04-17T09:44:45.566Z,4120
2018-04-17T09:45:47.182Z,4124
2018-04-17T09:46:48.788Z,4136
2018-04-17T09:47:50.425Z,4124
2018-04-17T09:48:52.036Z,4176
2018-04-17T09:49:53.705Z,4168
2018-04-17T09:50:55.253Z,4180
2018-04-17T09:51:56.850Z,4196
2018-04-17T09:52:58.444Z,4180
2018-04-17T09:54:00.060Z,4188
2018-04-17T09:55:01.673Z,4244
2018-04-17T09:56:03.288Z,4216
2018-04-17T09:57:04.924Z,4224
2018-04-17T09:58:06.520Z,4228
2018-04-17T09:59:08.139Z,4240
2018-04-17T10:00:09.727Z,4252
2018-04-17T10:01:11.422Z,4288
2018-04-17T10:02:13.006Z,4304
2018-04-17T10:03:14.631Z,4332
2018-04-17T10:04:16.242Z,4344
2018-04-17T10:05:17.833Z,4368
2018-04-17T10:06:19.447Z,4372
2018-04-17T10:07:21.030Z,4380
2018-04-17T10:08:22.638Z,4420
2018-04-17T10:09:24.238Z,4436
2018-04-17T10:10:25.846Z,4436
2018-04-17T10:11:27.449Z,4460
2018-04-17T10:12:29.066Z,4520
2018-04-17T10:13:30.658Z,4568
2018-04-17T10:14:32.260Z,4608
2018-04-17T10:15:33.837Z,4640
2018-04-17T10:16:35.468Z,4676
2018-04-17T10:17:37.091Z,4704
2018-04-17T10:18:38.679Z,4716
2018-04-17T10:19:40.275Z,4716
2018-04-17T10:20:41.874Z,4700
2018-04-17T10:21:43.479Z,4696
2018-04-17T10:22:45.074Z,4736
2018-04-17T10:23:46.672Z,4764
2018-04-17T10:24:48.304Z,4780
2018-04-17T10:25:49.919Z,4808
2018-04-17T10:26:51.507Z,4820
2018-04-17T10:27:53.090Z,4816
2018-04-17T10:28:54.700Z,4840
2018-04-17T10:29:56.315Z,4828
2018-04-17T10:30:57.906Z,4840
2018-04-17T10:31:59.562Z,4864
2018-04-17T10:33:01.201Z,4868
2018-04-17T10:34:02.763Z,4816
2018-04-17T10:35:04.350Z,4824
2018-04-17T10:36:05.959Z,4804
2018-04-17T10:37:07.554Z,4828
2018-04-17T10:38:09.160Z,4832
2018-04-17T10:39:10.740Z,4840
2018-04-17T10:40:12.393Z,4892
2018-04-17T10:41:13.984Z,4928
2018-04-17T10:42:15.587Z,4956
2018-04-17T10:43:17.203Z,4984
2018-04-17T10:44:18.797Z,5024
2018-04-17T10:45:20.408Z,5056
2018-04-17T10:46:22.036Z,5092
2018-04-17T10:47:23.639Z,5120
2018-04-17T10:48:25.250Z,5128
2018-04-17T10:49:26.838Z,5092
2018-04-17T10:50:28.421Z,5080
2018-04-17T10:51:30.038Z,5060
2018-04-17T10:52:31.627Z,5028
2018-04-17T10:53:33.270Z,4964
2018-04-17T10:54:34.986Z,4944
2018-04-17T10:55:36.676Z,4996
2018-04-17T10:56:38.365Z,5020
2018-04-17T10:57:39.945Z,5028
2018-04-17T10:58:41.548Z,5044
2018-04-17T10:59:43.197Z,5052
2018-04-17T11:00:44.801Z,5056
2018-04-17T11:01:46.399Z,5044
2018-04-17T11:02:48.012Z,5032
2018-04-17T11:03:49.710Z,5060
2018-04-17T11:04:51.399Z,5092
2018-04-17T11:05:52.993Z,5144
2018-04-17T11:06:54.589Z,5212
2018-04-17T11:07:56.198Z,5256
2018-04-17T11:08:57.806Z,5272
2018-04-17T11:09:59.548Z,5280
2018-04-17T11:11:01.667Z,5264
2018-04-17T11:12:03.290Z,5256
2018-04-17T11:13:04.907Z,5268
2018-04-17T11:14:06.573Z,5304
2018-04-17T11:15:08.166Z,5336
2018-04-17T11:16:09.993Z,5364
2018-04-17T11:17:11.635Z,5404
2018-04-17T11:18:13.235Z,5444
2018-04-17T11:19:14.828Z,5484
2018-04-17T11:20:16.454Z,5524
2018-04-17T11:21:18.040Z,5560
2018-04-17T11:22:19.681Z,5588
2018-04-17T11:23:21.278Z,5644
2018-04-17T11:24:22.940Z,5720
2018-04-17T11:25:24.567Z,5780
2018-04-17T11:26:26.176Z,5876
2018-04-17T11:27:27.790Z,5952
2018-04-17T11:28:29.451Z,6020
2018-04-17T11:29:31.063Z,6116
2018-04-17T11:30:32.692Z,6188
2018-04-17T11:31:34.375Z,6252
2018-04-17T11:32:35.981Z,6340
2018-04-17T11:33:37.615Z,6484
2018-04-17T11:34:39.245Z,6656
2018-04-17T11:35:40.879Z,6872
2018-04-17T11:36:42.515Z,7132
2018-04-17T11:37:44.232Z,7372
2018-04-17T11:38:45.966Z,7504
2018-04-17T11:39:47.568Z,7824
2018-04-17T11:40:49.166Z,8080
2018-04-17T11:41:50.832Z,8532
2018-04-17T11:42:52.450Z,9480
2018-04-17T11:43:54.009Z,12900
2018-04-17T11:44:55.651Z,16708
2018-04-17T11:45:58.972Z,18528
2018-04-17T11:47:00.578Z,19072
2018-04-17T11:48:02.250Z,18816
2018-04-17T11:49:03.888Z,19392
2018-04-17T11:50:05.632Z,19680
2018-04-17T11:51:07.242Z,19552
2018-04-17T11:52:08.876Z,19968
2018-04-17T11:53:10.503Z,19648
2018-04-17T11:54:12.217Z,20416
2018-04-17T11:55:13.845Z,19936
2018-04-17T11:56:15.521Z,20160
2018-04-17T11:57:17.221Z,20352
2018-04-17T11:58:18.917Z,20768
2018-04-17T11:59:20.557Z,22016
2018-04-17T12:00:22.183Z,22944
2018-04-17T12:01:23.865Z,22752
2018-04-17T12:02:25.562Z,22656
2018-04-17T12:03:27.151Z,23232
2018-04-17T12:04:28.757Z,22368
2018-04-17T12:05:30.376Z,22496
2018-04-17T12:06:31.996Z,23392
2018-04-17T12:07:33.624Z,24256
2018-04-17T12:08:35.242Z,24160
2018-04-17T12:09:36.884Z,25504
2018-04-17T12:10:38.478Z,25792
2018-04-17T12:11:40.104Z,26080
2018-04-17T12:12:41.714Z,26528
2018-04-17T12:13:43.463Z,25952
2018-04-17T12:14:45.168Z,24288
2018-04-17T12:15:46.988Z,24160
2018-04-17T12:16:48.632Z,25792
2018-04-17T12:17:50.376Z,26368
2018-04-17T12:18:51.996Z,25344
2018-04-17T12:19:53.620Z,25632
2018-04-17T12:20:55.327Z,26688
2018-04-17T12:21:56.932Z,27232
2018-04-17T12:22:58.561Z,26912
2018-04-17T12:24:00.207Z,26912
2018-04-17T12:25:01.846Z,27008
2018-04-17T12:26:03.810Z,27968
2018-04-17T12:27:05.650Z,28064
2018-04-17T12:28:07.306Z,28352
2018-04-17T12:29:08.961Z,28192
2018-04-17T12:30:10.637Z,27200
2018-04-17T12:31:12.328Z,27456
2018-04-17T12:32:14.053Z,28000
2018-04-17T12:33:15.775Z,27552
2018-04-17T12:34:17.550Z,28256
2018-04-17T12:35:19.295Z,28768
2018-04-17T12:36:21.077Z,29280
2018-04-17T12:37:22.816Z,31680
2018-04-17T12:38:24.585Z,32064
2018-04-17T12:39:26.334Z,31168
2018-04-17T12:40:28.110Z,31648
2018-04-17T12:41:29.862Z,32832
2018-04-17T12:42:31.530Z,32928
2018-04-17T12:43:33.298Z,33376
2018-04-17T12:44:35.040Z,34816
2018-04-17T12:45:36.734Z,35104
2018-04-17T12:46:38.566Z,35744
2018-04-17T12:47:40.487Z,36864
2018-04-17T12:48:42.162Z,38304
2018-04-17T12:49:43.887Z,37952
2018-04-17T12:50:45.596Z,37088
2018-04-17T12:51:47.373Z,39136
2018-04-17T12:52:49.085Z,37792
2018-04-17T12:53:50.800Z,38144
2018-04-17T12:54:52.518Z,42464
2018-04-17T12:55:54.166Z,41888
2018-04-17T12:56:55.903Z,45024
2018-04-17T12:57:57.569Z,49184
2018-04-17T12:58:59.444Z,52224
2018-04-17T13:00:02.849Z,54240
2018-04-17T13:01:04.581Z,55072
2018-04-17T13:02:06.340Z,54688
2018-04-17T13:03:08.061Z,59680
2018-04-17T13:04:09.720Z,62112
2018-04-17T13:05:11.471Z,64608
2018-04-17T13:06:13.136Z,67936
2018-04-17T13:07:14.837Z,72832
2018-04-17T13:08:16.543Z,75360
2018-04-17T13:09:18.287Z,78592
2018-04-17T13:10:20.004Z,81600
2018-04-17T13:11:21.721Z,82336
2018-04-17T13:12:23.421Z,82720
2018-04-17T13:13:25.137Z,89760
2018-04-17T13:14:26.943Z,91264
2018-04-17T13:15:28.765Z,93504
2018-04-17T13:16:30.485Z,92544
2018-04-17T13:17:32.285Z,93600
2018-04-17T13:18:33.993Z,100768
2018-04-17T13:19:35.775Z,106048
2018-04-17T13:20:37.567Z,106880
2018-04-17T13:21:39.518Z,110336
2018-04-17T13:22:41.189Z,115232
2018-04-17T13:23:42.959Z,117472
2018-04-17T13:24:44.736Z,120000
2018-04-17T13:25:46.501Z,119616
2018-04-17T13:26:48.242Z,121504
2018-04-17T13:27:49.910Z,120832
2018-04-17T13:28:51.648Z,118656
2018-04-17T13:29:53.438Z,112864
2018-04-17T13:30:55.113Z,111008
2018-04-17T13:31:56.845Z,110272
2018-04-17T13:32:58.548Z,108160
2018-04-17T13:34:00.290Z,103936
2018-04-17T13:35:01.986Z,100352
2018-04-17T13:36:03.710Z,97216
2018-04-17T13:37:05.395Z,94272
2018-04-17T13:38:07.190Z,84928
2018-04-17T13:39:08.930Z,55776
2018-04-17T13:40:10.626Z,23168
2018-04-17T13:41:12.334Z,17600
2018-04-17T13:42:14.059Z,17056
2018-04-17T13:43:15.753Z,16672
2018-04-17T13:44:17.472Z,16512
2018-04-17T13:45:19.226Z,16384
2018-04-17T13:46:20.976Z,16416
2018-04-17T13:47:22.729Z,16416
2018-04-17T13:48:24.486Z,16608
2018-04-17T13:49:26.178Z,17056
2018-04-17T13:50:27.849Z,22400
2018-04-17T13:51:29.543Z,45536
2018-04-17T13:52:31.295Z,52704
2018-04-17T13:53:32.995Z,36544
2018-04-17T13:54:34.692Z,18752
2018-04-17T13:55:37.579Z,17088
2018-04-17T13:56:39.262Z,16800
2018-04-17T13:57:40.960Z,16480
2018-04-17T13:58:42.758Z,16384
2018-04-17T13:59:44.463Z,16288
2018-04-17T14:00:46.087Z,15948
2018-04-17T14:01:47.800Z,15832
2018-04-17T14:02:49.512Z,15892
2018-04-17T14:03:51.229Z,15988
2018-04-17T14:04:52.992Z,16072
2018-04-17T14:05:54.689Z,16036
2018-04-17T14:06:56.378Z,16004
2018-04-17T14:07:58.057Z,16012
2018-04-17T14:08:59.742Z,16000
2018-04-17T14:10:01.587Z,16048